Bierbeek, Belgium
Current Conditions -  °F | °C
As of 8:56 AM on Tuesday 21 Oct 2014 (Local Time) from EBBE Reporting Station
Light Rain Light Rain  
Wind Chill: 54°   Ceiling: 3500
Heat Index: 54°   Visibility: 6mi
Dew Point: 50°   Wind: 16mph
Humidity: 88%   Direction: 220°SW
Pressure: 29.77"   Gusts: NA
Location:  50.83°N, 4.76°E
Report Text: EBBE 210656Z 22014KT 9999 -RA FEW010 SCT012 BKN035 12/10 Q1008 GRN GRN
Loading
Personal Weather Stations






























Interactive Weather Map New forecast layout! Learn more

10-Day Weather Forecast

Advertisements
Track Severe Weather on mobile